sensor_id;sensor_type;location;lat;lon;timestamp;P1;durP1;ratioP1;P2;durP2;ratioP2
261;SDS011;114;48.260;10.988;2023-04-21T00:00:56;32.93;;;22.30;;
261;SDS011;114;48.260;10.988;2023-04-21T00:03:25;30.80;;;23.97;;
261;SDS011;114;48.260;10.988;2023-04-21T00:05:52;28.23;;;22.10;;
261;SDS011;114;48.260;10.988;2023-04-21T00:08:20;31.30;;;22.80;;
261;SDS011;114;48.260;10.988;2023-04-21T00:10:46;30.27;;;22.73;;
261;SDS011;114;48.260;10.988;2023-04-21T00:13:11;32.47;;;22.97;;
261;SDS011;114;48.260;10.988;2023-04-21T00:15:38;29.73;;;22.50;;
261;SDS011;114;48.260;10.988;2023-04-21T00:18:04;31.20;;;23.87;;
261;SDS011;114;48.260;10.988;2023-04-21T00:20:30;28.73;;;22.33;;
261;SDS011;114;48.260;10.988;2023-04-21T00:22:56;27.83;;;22.27;;
261;SDS011;114;48.260;10.988;2023-04-21T00:25:23;26.10;;;20.97;;
261;SDS011;114;48.260;10.988;2023-04-21T00:27:49;27.17;;;21.00;;
261;SDS011;114;48.260;10.988;2023-04-21T00:30:15;29.07;;;21.20;;
261;SDS011;114;48.260;10.988;2023-04-21T00:32:41;27.27;;;20.67;;
261;SDS011;114;48.260;10.988;2023-04-21T00:35:06;27.27;;;22.37;;
261;SDS011;114;48.260;10.988;2023-04-21T00:37:33;28.10;;;22.40;;
261;SDS011;114;48.260;10.988;2023-04-21T00:39:59;28.10;;;22.07;;
261;SDS011;114;48.260;10.988;2023-04-21T00:42:24;30.93;;;22.03;;
261;SDS011;114;48.260;10.988;2023-04-21T00:44:50;29.63;;;22.77;;
261;SDS011;114;48.260;10.988;2023-04-21T00:47:17;29.87;;;22.80;;
261;SDS011;114;48.260;10.988;2023-04-21T00:49:44;25.17;;;21.20;;
261;SDS011;114;48.260;10.988;2023-04-21T00:52:10;32.67;;;24.63;;
261;SDS011;114;48.260;10.988;2023-04-21T00:54:37;32.07;;;22.60;;
261;SDS011;114;48.260;10.988;2023-04-21T00:57:04;30.87;;;22.20;;
261;SDS011;114;48.260;10.988;2023-04-21T00:59:32;27.87;;;21.60;;
261;SDS011;114;48.260;10.988;2023-04-21T01:01:58;28.00;;;21.53;;
261;SDS011;114;48.260;10.988;2023-04-21T01:04:24;30.77;;;21.93;;
261;SDS011;114;48.260;10.988;2023-04-21T01:06:50;27.33;;;22.03;;
261;SDS011;114;48.260;10.988;2023-04-21T01:09:16;34.20;;;24.40;;
261;SDS011;114;48.260;10.988;2023-04-21T01:11:58;30.43;;;23.30;;
261;SDS011;114;48.260;10.988;2023-04-21T01:14:37;27.70;;;22.10;;
261;SDS011;114;48.260;10.988;2023-04-21T01:17:04;26.70;;;20.00;;
261;SDS011;114;48.260;10.988;2023-04-21T01:19:32;26.00;;;20.90;;
261;SDS011;114;48.260;10.988;2023-04-21T01:22:00;25.10;;;20.60;;
261;SDS011;114;48.260;10.988;2023-04-21T01:27:09;27.60;;;21.40;;
261;SDS011;114;48.260;10.988;2023-04-21T01:29:39;30.10;;;23.37;;
261;SDS011;114;48.260;10.988;2023-04-21T01:32:06;32.20;;;23.27;;
261;SDS011;114;48.260;10.988;2023-04-21T01:34:39;32.67;;;24.27;;
261;SDS011;114;48.260;10.988;2023-04-21T01:37:06;31.10;;;23.17;;
261;SDS011;114;48.260;10.988;2023-04-21T01:39:33;33.90;;;24.67;;
261;SDS011;114;48.260;10.988;2023-04-21T01:42:02;30.63;;;23.50;;
261;SDS011;114;48.260;10.988;2023-04-21T01:44:28;28.37;;;23.07;;
261;SDS011;114;48.260;10.988;2023-04-21T01:46:54;27.93;;;21.83;;
261;SDS011;114;48.260;10.988;2023-04-21T01:49:20;29.57;;;23.40;;
261;SDS011;114;48.260;10.988;2023-04-21T01:51:46;34.93;;;24.73;;
261;SDS011;114;48.260;10.988;2023-04-21T01:54:11;29.60;;;23.07;;
261;SDS011;114;48.260;10.988;2023-04-21T01:56:37;29.83;;;23.27;;
261;SDS011;114;48.260;10.988;2023-04-21T01:59:03;30.00;;;23.07;;
261;SDS011;114;48.260;10.988;2023-04-21T02:01:29;32.47;;;23.70;;
261;SDS011;114;48.260;10.988;2023-04-21T02:03:55;29.10;;;22.10;;
261;SDS011;114;48.260;10.988;2023-04-21T02:06:20;31.67;;;22.87;;
261;SDS011;114;48.260;10.988;2023-04-21T02:08:46;28.63;;;22.70;;
261;SDS011;114;48.260;10.988;2023-04-21T02:11:12;32.27;;;24.37;;
261;SDS011;114;48.260;10.988;2023-04-21T02:13:37;32.50;;;24.50;;
261;SDS011;114;48.260;10.988;2023-04-21T02:16:03;36.40;;;24.57;;
261;SDS011;114;48.260;10.988;2023-04-21T02:18:29;30.17;;;24.07;;
261;SDS011;114;48.260;10.988;2023-04-21T02:20:55;37.93;;;26.00;;
261;SDS011;114;48.260;10.988;2023-04-21T02:23:21;34.47;;;25.43;;
261;SDS011;114;48.260;10.988;2023-04-21T02:25:47;35.43;;;26.10;;
261;SDS011;114;48.260;10.988;2023-04-21T02:28:12;36.87;;;25.57;;
261;SDS011;114;48.260;10.988;2023-04-21T02:30:38;40.27;;;27.17;;
261;SDS011;114;48.260;10.988;2023-04-21T02:33:04;35.50;;;26.00;;
261;SDS011;114;48.260;10.988;2023-04-21T02:35:30;33.80;;;25.20;;
261;SDS011;114;48.260;10.988;2023-04-21T02:37:57;37.03;;;28.07;;
261;SDS011;114;48.260;10.988;2023-04-21T02:40:23;45.20;;;27.57;;
261;SDS011;114;48.260;10.988;2023-04-21T02:42:49;40.97;;;27.57;;
261;SDS011;114;48.260;10.988;2023-04-21T02:45:15;43.10;;;29.20;;
261;SDS011;114;48.260;10.988;2023-04-21T02:47:41;44.07;;;29.23;;
261;SDS011;114;48.260;10.988;2023-04-21T02:50:07;38.47;;;27.27;;
261;SDS011;114;48.260;10.988;2023-04-21T02:52:36;39.00;;;26.67;;
261;SDS011;114;48.260;10.988;2023-04-21T02:55:02;39.47;;;27.50;;
261;SDS011;114;48.260;10.988;2023-04-21T02:57:28;40.40;;;28.03;;
261;SDS011;114;48.260;10.988;2023-04-21T02:59:53;36.93;;;27.40;;
261;SDS011;114;48.260;10.988;2023-04-21T03:02:19;43.57;;;28.83;;
261;SDS011;114;48.260;10.988;2023-04-21T03:04:45;38.13;;;28.13;;
261;SDS011;114;48.260;10.988;2023-04-21T03:07:11;48.60;;;28.17;;
261;SDS011;114;48.260;10.988;2023-04-21T03:09:38;42.13;;;28.10;;
261;SDS011;114;48.260;10.988;2023-04-21T03:12:04;39.27;;;27.73;;
261;SDS011;114;48.260;10.988;2023-04-21T03:14:30;37.43;;;25.97;;
261;SDS011;114;48.260;10.988;2023-04-21T03:16:56;35.90;;;26.20;;
261;SDS011;114;48.260;10.988;2023-04-21T03:19:22;43.47;;;28.03;;
261;SDS011;114;48.260;10.988;2023-04-21T03:21:47;44.67;;;29.23;;
261;SDS011;114;48.260;10.988;2023-04-21T03:24:13;38.13;;;27.47;;
261;SDS011;114;48.260;10.988;2023-04-21T03:26:39;41.00;;;27.90;;
261;SDS011;114;48.260;10.988;2023-04-21T03:29:05;39.07;;;27.60;;
261;SDS011;114;48.260;10.988;2023-04-21T03:31:31;40.77;;;27.43;;
261;SDS011;114;48.260;10.988;2023-04-21T03:33:57;39.03;;;27.27;;
261;SDS011;114;48.260;10.988;2023-04-21T03:36:23;42.20;;;28.60;;
261;SDS011;114;48.260;10.988;2023-04-21T03:38:49;38.07;;;26.87;;
261;SDS011;114;48.260;10.988;2023-04-21T03:41:14;40.57;;;26.50;;
261;SDS011;114;48.260;10.988;2023-04-21T03:43:40;42.13;;;27.43;;
261;SDS011;114;48.260;10.988;2023-04-21T03:46:06;44.27;;;29.23;;
261;SDS011;114;48.260;10.988;2023-04-21T03:48:32;39.43;;;26.87;;
261;SDS011;114;48.260;10.988;2023-04-21T03:50:58;41.47;;;27.90;;
261;SDS011;114;48.260;10.988;2023-04-21T03:53:23;41.67;;;29.27;;
261;SDS011;114;48.260;10.988;2023-04-21T03:55:49;39.87;;;26.80;;
261;SDS011;114;48.260;10.988;2023-04-21T03:58:15;40.43;;;28.17;;
261;SDS011;114;48.260;10.988;2023-04-21T04:00:41;39.23;;;27.50;;
261;SDS011;114;48.260;10.988;2023-04-21T04:03:07;37.57;;;27.63;;
261;SDS011;114;48.260;10.988;2023-04-21T04:05:34;38.13;;;26.53;;
261;SDS011;114;48.260;10.988;2023-04-21T04:08:00;39.10;;;28.27;;
261;SDS011;114;48.260;10.988;2023-04-21T04:10:26;42.27;;;28.47;;
261;SDS011;114;48.260;10.988;2023-04-21T04:12:52;36.87;;;25.93;;
261;SDS011;114;48.260;10.988;2023-04-21T04:15:19;41.50;;;28.40;;
261;SDS011;114;48.260;10.988;2023-04-21T04:17:45;39.70;;;27.17;;
261;SDS011;114;48.260;10.988;2023-04-21T04:20:11;33.07;;;24.43;;
261;SDS011;114;48.260;10.988;2023-04-21T04:22:36;43.90;;;26.87;;
261;SDS011;114;48.260;10.988;2023-04-21T04:25:05;33.80;;;25.57;;
261;SDS011;114;48.260;10.988;2023-04-21T04:27:31;36.07;;;26.33;;
261;SDS011;114;48.260;10.988;2023-04-21T04:29:57;37.33;;;25.47;;
261;SDS011;114;48.260;10.988;2023-04-21T04:32:23;36.20;;;26.53;;
261;SDS011;114;48.260;10.988;2023-04-21T04:34:52;34.47;;;25.17;;
261;SDS011;114;48.260;10.988;2023-04-21T04:37:20;34.80;;;26.43;;
261;SDS011;114;48.260;10.988;2023-04-21T04:39:46;35.40;;;25.10;;
261;SDS011;114;48.260;10.988;2023-04-21T04:42:12;37.87;;;28.63;;
261;SDS011;114;48.260;10.988;2023-04-21T04:44:38;37.43;;;25.97;;
261;SDS011;114;48.260;10.988;2023-04-21T04:47:05;34.37;;;25.13;;
261;SDS011;114;48.260;10.988;2023-04-21T04:49:31;39.47;;;26.87;;
261;SDS011;114;48.260;10.988;2023-04-21T04:51:57;34.93;;;26.53;;
261;SDS011;114;48.260;10.988;2023-04-21T04:54:24;34.77;;;26.03;;
261;SDS011;114;48.260;10.988;2023-04-21T04:56:49;36.00;;;25.50;;
261;SDS011;114;48.260;10.988;2023-04-21T04:59:15;33.73;;;25.57;;
261;SDS011;114;48.260;10.988;2023-04-21T05:01:41;34.37;;;26.37;;
261;SDS011;114;48.260;10.988;2023-04-21T05:04:06;29.33;;;24.40;;
261;SDS011;114;48.260;10.988;2023-04-21T05:06:32;32.13;;;24.93;;
261;SDS011;114;48.260;10.988;2023-04-21T05:08:58;31.87;;;24.60;;
261;SDS011;114;48.260;10.988;2023-04-21T05:11:23;31.50;;;25.60;;
261;SDS011;114;48.260;10.988;2023-04-21T05:13:49;29.83;;;23.73;;
261;SDS011;114;48.260;10.988;2023-04-21T05:16:15;32.10;;;25.00;;
261;SDS011;114;48.260;10.988;2023-04-21T05:18:40;33.30;;;25.60;;
261;SDS011;114;48.260;10.988;2023-04-21T05:21:06;41.10;;;30.37;;
261;SDS011;114;48.260;10.988;2023-04-21T05:23:32;40.00;;;29.00;;
261;SDS011;114;48.260;10.988;2023-04-21T05:25:58;42.27;;;31.30;;
261;SDS011;114;48.260;10.988;2023-04-21T05:28:23;37.77;;;26.60;;
261;SDS011;114;48.260;10.988;2023-04-21T05:30:50;37.40;;;26.57;;
261;SDS011;114;48.260;10.988;2023-04-21T05:33:18;30.83;;;24.83;;
261;SDS011;114;48.260;10.988;2023-04-21T05:35:45;37.00;;;25.70;;
261;SDS011;114;48.260;10.988;2023-04-21T05:38:10;34.80;;;25.10;;
261;SDS011;114;48.260;10.988;2023-04-21T05:40:36;32.80;;;25.67;;
261;SDS011;114;48.260;10.988;2023-04-21T05:43:02;34.43;;;24.20;;
261;SDS011;114;48.260;10.988;2023-04-21T05:45:27;31.77;;;26.13;;
261;SDS011;114;48.260;10.988;2023-04-21T05:47:53;31.53;;;24.83;;
261;SDS011;114;48.260;10.988;2023-04-21T05:50:19;28.07;;;23.23;;
261;SDS011;114;48.260;10.988;2023-04-21T05:52:44;28.03;;;22.43;;
261;SDS011;114;48.260;10.988;2023-04-21T05:55:10;31.20;;;23.87;;
261;SDS011;114;48.260;10.988;2023-04-21T05:57:36;29.63;;;24.47;;
261;SDS011;114;48.260;10.988;2023-04-21T06:00:02;31.20;;;25.60;;
261;SDS011;114;48.260;10.988;2023-04-21T06:02:28;29.57;;;24.10;;
261;SDS011;114;48.260;10.988;2023-04-21T06:04:54;30.47;;;24.90;;
261;SDS011;114;48.260;10.988;2023-04-21T06:07:20;27.77;;;23.90;;
261;SDS011;114;48.260;10.988;2023-04-21T06:09:48;29.20;;;23.53;;
261;SDS011;114;48.260;10.988;2023-04-21T06:12:15;35.73;;;25.77;;
261;SDS011;114;48.260;10.988;2023-04-21T06:14:40;30.20;;;24.10;;
261;SDS011;114;48.260;10.988;2023-04-21T06:17:06;29.60;;;23.70;;
261;SDS011;114;48.260;10.988;2023-04-21T06:19:35;35.50;;;28.20;;
261;SDS011;114;48.260;10.988;2023-04-21T06:22:02;31.77;;;24.53;;
261;SDS011;114;48.260;10.988;2023-04-21T06:24:30;50.30;;;34.37;;
261;SDS011;114;48.260;10.988;2023-04-21T06:26:56;36.47;;;28.23;;
261;SDS011;114;48.260;10.988;2023-04-21T06:29:22;34.57;;;28.67;;
261;SDS011;114;48.260;10.988;2023-04-21T06:31:48;47.50;;;30.57;;
261;SDS011;114;48.260;10.988;2023-04-21T06:34:14;44.47;;;29.40;;
261;SDS011;114;48.260;10.988;2023-04-21T06:36:40;46.90;;;33.80;;
261;SDS011;114;48.260;10.988;2023-04-21T06:39:06;29.57;;;23.97;;
261;SDS011;114;48.260;10.988;2023-04-21T06:41:31;27.73;;;23.87;;
261;SDS011;114;48.260;10.988;2023-04-21T06:43:57;32.20;;;27.00;;
261;SDS011;114;48.260;10.988;2023-04-21T06:46:23;28.80;;;23.30;;
261;SDS011;114;48.260;10.988;2023-04-21T06:48:48;27.23;;;23.70;;
261;SDS011;114;48.260;10.988;2023-04-21T06:51:14;31.77;;;25.13;;
261;SDS011;114;48.260;10.988;2023-04-21T06:53:39;26.53;;;23.63;;
261;SDS011;114;48.260;10.988;2023-04-21T06:56:05;31.80;;;23.90;;
261;SDS011;114;48.260;10.988;2023-04-21T06:58:31;31.40;;;23.97;;
261;SDS011;114;48.260;10.988;2023-04-21T07:00:57;26.47;;;23.57;;
261;SDS011;114;48.260;10.988;2023-04-21T07:03:22;23.83;;;21.00;;
261;SDS011;114;48.260;10.988;2023-04-21T07:05:48;25.83;;;23.00;;
261;SDS011;114;48.260;10.988;2023-04-21T07:08:14;27.60;;;22.10;;
261;SDS011;114;48.260;10.988;2023-04-21T07:10:40;26.67;;;23.57;;
261;SDS011;114;48.260;10.988;2023-04-21T07:13:05;28.33;;;22.60;;
261;SDS011;114;48.260;10.988;2023-04-21T07:15:31;26.80;;;23.53;;
261;SDS011;114;48.260;10.988;2023-04-21T07:17:57;27.10;;;24.20;;
261;SDS011;114;48.260;10.988;2023-04-21T07:20:23;31.37;;;23.90;;
261;SDS011;114;48.260;10.988;2023-04-21T07:22:48;25.90;;;22.70;;
261;SDS011;114;48.260;10.988;2023-04-21T07:25:14;30.97;;;25.27;;
261;SDS011;114;48.260;10.988;2023-04-21T07:27:40;31.80;;;23.50;;
261;SDS011;114;48.260;10.988;2023-04-21T07:30:06;29.30;;;21.73;;
261;SDS011;114;48.260;10.988;2023-04-21T07:32:32;28.57;;;23.90;;
261;SDS011;114;48.260;10.988;2023-04-21T07:34:58;30.53;;;22.63;;
261;SDS011;114;48.260;10.988;2023-04-21T07:37:25;25.90;;;22.47;;
261;SDS011;114;48.260;10.988;2023-04-21T07:39:51;28.00;;;23.60;;
261;SDS011;114;48.260;10.988;2023-04-21T07:42:17;26.10;;;22.30;;
261;SDS011;114;48.260;10.988;2023-04-21T07:44:42;29.87;;;22.40;;
261;SDS011;114;48.260;10.988;2023-04-21T07:47:08;29.40;;;23.20;;
261;SDS011;114;48.260;10.988;2023-04-21T07:49:34;23.17;;;20.47;;
261;SDS011;114;48.260;10.988;2023-04-21T07:52:00;23.57;;;20.40;;
261;SDS011;114;48.260;10.988;2023-04-21T07:54:25;24.33;;;21.00;;
261;SDS011;114;48.260;10.988;2023-04-21T07:56:51;23.40;;;19.77;;
261;SDS011;114;48.260;10.988;2023-04-21T07:59:17;23.20;;;19.07;;
261;SDS011;114;48.260;10.988;2023-04-21T08:01:42;22.13;;;18.33;;
261;SDS011;114;48.260;10.988;2023-04-21T08:04:08;22.70;;;17.60;;
261;SDS011;114;48.260;10.988;2023-04-21T08:06:34;21.83;;;17.80;;
261;SDS011;114;48.260;10.988;2023-04-21T08:09:00;21.37;;;16.73;;
261;SDS011;114;48.260;10.988;2023-04-21T08:11:25;21.00;;;18.80;;
261;SDS011;114;48.260;10.988;2023-04-21T08:13:52;23.07;;;17.17;;
261;SDS011;114;48.260;10.988;2023-04-21T08:16:18;18.63;;;16.73;;
261;SDS011;114;48.260;10.988;2023-04-21T08:18:44;20.87;;;17.30;;
261;SDS011;114;48.260;10.988;2023-04-21T08:21:10;18.97;;;16.17;;
261;SDS011;114;48.260;10.988;2023-04-21T08:23:36;18.50;;;15.93;;
261;SDS011;114;48.260;10.988;2023-04-21T08:26:02;19.27;;;17.17;;
261;SDS011;114;48.260;10.988;2023-04-21T08:28:30;22.00;;;17.60;;
261;SDS011;114;48.260;10.988;2023-04-21T08:30:57;17.90;;;16.00;;
261;SDS011;114;48.260;10.988;2023-04-21T08:33:27;22.00;;;17.10;;
261;SDS011;114;48.260;10.988;2023-04-21T08:35:55;18.13;;;15.80;;
261;SDS011;114;48.260;10.988;2023-04-21T08:38:22;18.80;;;16.47;;
261;SDS011;114;48.260;10.988;2023-04-21T08:40:49;19.20;;;16.73;;
261;SDS011;114;48.260;10.988;2023-04-21T08:43:17;18.53;;;16.07;;
261;SDS011;114;48.260;10.988;2023-04-21T08:45:44;19.63;;;16.47;;
261;SDS011;114;48.260;10.988;2023-04-21T08:48:13;19.73;;;15.70;;
261;SDS011;114;48.260;10.988;2023-04-21T08:50:42;20.83;;;15.83;;
261;SDS011;114;48.260;10.988;2023-04-21T08:53:10;19.53;;;17.13;;
261;SDS011;114;48.260;10.988;2023-04-21T08:55:36;20.63;;;17.53;;
261;SDS011;114;48.260;10.988;2023-04-21T08:58:08;19.67;;;16.70;;
261;SDS011;114;48.260;10.988;2023-04-21T09:00:34;17.17;;;15.37;;
261;SDS011;114;48.260;10.988;2023-04-21T09:03:00;14.40;;;12.90;;
261;SDS011;114;48.260;10.988;2023-04-21T09:05:28;15.30;;;13.37;;
261;SDS011;114;48.260;10.988;2023-04-21T09:08:11;16.87;;;13.80;;
261;SDS011;114;48.260;10.988;2023-04-21T09:10:50;11.20;;;10.10;;
261;SDS011;114;48.260;10.988;2023-04-21T09:13:17;24.47;;;11.50;;
261;SDS011;114;48.260;10.988;2023-04-21T09:15:44;12.67;;;11.37;;
261;SDS011;114;48.260;10.988;2023-04-21T09:18:18;15.60;;;11.37;;
261;SDS011;114;48.260;10.988;2023-04-21T09:20:46;15.87;;;12.13;;
261;SDS011;114;48.260;10.988;2023-04-21T09:23:14;16.93;;;12.10;;
261;SDS011;114;48.260;10.988;2023-04-21T09:25:41;15.63;;;12.63;;
261;SDS011;114;48.260;10.988;2023-04-21T09:28:09;13.90;;;11.90;;
261;SDS011;114;48.260;10.988;2023-04-21T09:30:37;16.10;;;13.00;;
261;SDS011;114;48.260;10.988;2023-04-21T09:33:05;15.17;;;13.67;;
261;SDS011;114;48.260;10.988;2023-04-21T09:35:32;15.40;;;13.80;;
261;SDS011;114;48.260;10.988;2023-04-21T09:38:00;15.50;;;13.00;;
261;SDS011;114;48.260;10.988;2023-04-21T09:40:28;20.50;;;15.33;;
261;SDS011;114;48.260;10.988;2023-04-21T09:42:54;20.63;;;15.40;;
261;SDS011;114;48.260;10.988;2023-04-21T09:45:22;18.63;;;16.00;;
261;SDS011;114;48.260;10.988;2023-04-21T09:47:53;21.10;;;16.60;;
261;SDS011;114;48.260;10.988;2023-04-21T09:50:23;19.37;;;16.10;;
261;SDS011;114;48.260;10.988;2023-04-21T09:52:50;20.50;;;17.70;;
261;SDS011;114;48.260;10.988;2023-04-21T09:55:17;19.43;;;15.80;;
261;SDS011;114;48.260;10.988;2023-04-21T09:57:45;22.20;;;16.33;;
261;SDS011;114;48.260;10.988;2023-04-21T10:00:15;19.67;;;16.73;;
261;SDS011;114;48.260;10.988;2023-04-21T10:02:47;17.77;;;15.03;;
261;SDS011;114;48.260;10.988;2023-04-21T10:05:15;18.57;;;15.50;;
261;SDS011;114;48.260;10.988;2023-04-21T10:07:42;19.67;;;16.40;;
261;SDS011;114;48.260;10.988;2023-04-21T10:10:13;19.17;;;16.40;;
261;SDS011;114;48.260;10.988;2023-04-21T10:12:52;19.90;;;16.47;;
261;SDS011;114;48.260;10.988;2023-04-21T10:15:39;19.73;;;17.53;;
261;SDS011;114;48.260;10.988;2023-04-21T10:18:27;21.47;;;16.13;;
261;SDS011;114;48.260;10.988;2023-04-21T10:20:53;23.10;;;18.30;;
261;SDS011;114;48.260;10.988;2023-04-21T10:23:42;21.57;;;17.40;;
261;SDS011;114;48.260;10.988;2023-04-21T10:26:11;22.23;;;17.57;;
261;SDS011;114;48.260;10.988;2023-04-21T10:36:34;20.53;;;17.53;;
261;SDS011;114;48.260;10.988;2023-04-21T10:39:28;21.50;;;17.77;;
261;SDS011;114;48.260;10.988;2023-04-21T10:41:57;22.13;;;18.60;;
261;SDS011;114;48.260;10.988;2023-04-21T10:44:50;25.43;;;18.00;;
261;SDS011;114;48.260;10.988;2023-04-21T10:47:24;22.17;;;18.00;;
261;SDS011;114;48.260;10.988;2023-04-21T10:49:50;21.70;;;18.80;;
261;SDS011;114;48.260;10.988;2023-04-21T10:52:16;20.83;;;18.20;;
261;SDS011;114;48.260;10.988;2023-04-21T10:57:17;23.83;;;16.30;;
261;SDS011;114;48.260;10.988;2023-04-21T10:59:44;25.43;;;18.70;;
261;SDS011;114;48.260;10.988;2023-04-21T11:02:11;20.43;;;18.13;;
261;SDS011;114;48.260;10.988;2023-04-21T11:04:37;23.73;;;18.30;;
261;SDS011;114;48.260;10.988;2023-04-21T11:09:42;22.17;;;17.73;;
261;SDS011;114;48.260;10.988;2023-04-21T11:12:11;24.73;;;19.50;;
261;SDS011;114;48.260;10.988;2023-04-21T11:14:42;21.80;;;18.87;;
261;SDS011;114;48.260;10.988;2023-04-21T11:17:12;22.80;;;17.53;;
261;SDS011;114;48.260;10.988;2023-04-21T11:19:39;23.70;;;18.97;;
261;SDS011;114;48.260;10.988;2023-04-21T11:22:06;22.00;;;18.33;;
261;SDS011;114;48.260;10.988;2023-04-21T11:24:32;21.03;;;17.93;;
261;SDS011;114;48.260;10.988;2023-04-21T11:26:58;20.70;;;18.00;;
261;SDS011;114;48.260;10.988;2023-04-21T11:29:26;22.13;;;18.47;;
261;SDS011;114;48.260;10.988;2023-04-21T11:31:53;23.60;;;19.57;;
261;SDS011;114;48.260;10.988;2023-04-21T11:34:19;22.60;;;18.97;;
261;SDS011;114;48.260;10.988;2023-04-21T11:36:46;21.67;;;18.70;;
261;SDS011;114;48.260;10.988;2023-04-21T11:39:13;18.90;;;17.00;;
261;SDS011;114;48.260;10.988;2023-04-21T11:41:48;23.00;;;16.83;;
261;SDS011;114;48.260;10.988;2023-04-21T11:44:34;19.70;;;17.70;;
261;SDS011;114;48.260;10.988;2023-04-21T11:47:17;18.93;;;16.43;;
261;SDS011;114;48.260;10.988;2023-04-21T11:49:51;19.37;;;17.27;;
261;SDS011;114;48.260;10.988;2023-04-21T11:55:02;17.73;;;15.93;;
261;SDS011;114;48.260;10.988;2023-04-21T11:57:30;21.13;;;15.00;;
261;SDS011;114;48.260;10.988;2023-04-21T11:59:57;18.30;;;14.97;;
261;SDS011;114;48.260;10.988;2023-04-21T12:02:30;16.13;;;14.30;;
261;SDS011;114;48.260;10.988;2023-04-21T12:07:28;15.00;;;13.50;;
261;SDS011;114;48.260;10.988;2023-04-21T12:09:57;13.10;;;11.90;;
261;SDS011;114;48.260;10.988;2023-04-21T12:12:24;11.60;;;10.50;;
261;SDS011;114;48.260;10.988;2023-04-21T12:14:50;13.07;;;11.77;;
261;SDS011;114;48.260;10.988;2023-04-21T12:17:17;10.13;;;9.23;;
261;SDS011;114;48.260;10.988;2023-04-21T12:19:43;9.97;;;9.17;;
261;SDS011;114;48.260;10.988;2023-04-21T12:22:10;11.77;;;9.33;;
261;SDS011;114;48.260;10.988;2023-04-21T12:24:37;10.50;;;9.60;;
261;SDS011;114;48.260;10.988;2023-04-21T12:27:04;10.23;;;9.20;;
261;SDS011;114;48.260;10.988;2023-04-21T12:29:30;8.20;;;7.50;;
261;SDS011;114;48.260;10.988;2023-04-21T12:31:56;7.83;;;7.23;;
261;SDS011;114;48.260;10.988;2023-04-21T12:34:22;7.70;;;7.00;;
261;SDS011;114;48.260;10.988;2023-04-21T12:36:48;7.33;;;6.73;;
261;SDS011;114;48.260;10.988;2023-04-21T12:39:14;7.90;;;7.20;;
261;SDS011;114;48.260;10.988;2023-04-21T12:41:41;7.70;;;7.00;;
261;SDS011;114;48.260;10.988;2023-04-21T12:44:07;9.10;;;8.33;;
261;SDS011;114;48.260;10.988;2023-04-21T12:46:32;9.40;;;8.60;;
261;SDS011;114;48.260;10.988;2023-04-21T12:48:58;9.23;;;8.00;;
261;SDS011;114;48.260;10.988;2023-04-21T12:51:24;8.60;;;7.87;;
261;SDS011;114;48.260;10.988;2023-04-21T12:53:50;9.10;;;8.10;;
261;SDS011;114;48.260;10.988;2023-04-21T12:56:16;7.67;;;6.97;;
261;SDS011;114;48.260;10.988;2023-04-21T12:58:42;9.63;;;8.67;;
261;SDS011;114;48.260;10.988;2023-04-21T13:01:08;9.90;;;8.00;;
261;SDS011;114;48.260;10.988;2023-04-21T13:03:34;8.00;;;7.40;;
261;SDS011;114;48.260;10.988;2023-04-21T13:05:59;9.63;;;8.83;;
261;SDS011;114;48.260;10.988;2023-04-21T13:08:25;10.73;;;9.60;;
261;SDS011;114;48.260;10.988;2023-04-21T13:10:51;8.90;;;8.10;;
261;SDS011;114;48.260;10.988;2023-04-21T13:13:16;10.30;;;8.07;;
261;SDS011;114;48.260;10.988;2023-04-21T13:15:42;7.67;;;7.07;;
261;SDS011;114;48.260;10.988;2023-04-21T13:18:08;9.32;;;8.45;;
261;SDS011;114;48.260;10.988;2023-04-21T13:20:33;9.43;;;8.33;;
261;SDS011;114;48.260;10.988;2023-04-21T13:22:59;8.20;;;7.40;;
261;SDS011;114;48.260;10.988;2023-04-21T13:25:25;8.63;;;7.90;;
261;SDS011;114;48.260;10.988;2023-04-21T13:27:51;9.50;;;8.60;;
261;SDS011;114;48.260;10.988;2023-04-21T13:30:16;8.10;;;7.50;;
261;SDS011;114;48.260;10.988;2023-04-21T13:32:42;9.30;;;8.50;;
261;SDS011;114;48.260;10.988;2023-04-21T13:35:08;9.10;;;8.13;;
261;SDS011;114;48.260;10.988;2023-04-21T13:37:35;8.90;;;7.93;;
261;SDS011;114;48.260;10.988;2023-04-21T13:40:02;9.73;;;8.73;;
261;SDS011;114;48.260;10.988;2023-04-21T13:42:28;9.35;;;8.55;;
261;SDS011;114;48.260;10.988;2023-04-21T13:44:54;11.50;;;10.30;;
261;SDS011;114;48.260;10.988;2023-04-21T13:47:20;10.07;;;9.07;;
261;SDS011;114;48.260;10.988;2023-04-21T13:49:47;8.37;;;7.73;;
261;SDS011;114;48.260;10.988;2023-04-21T13:52:14;8.88;;;7.97;;
261;SDS011;114;48.260;10.988;2023-04-21T13:54:40;8.20;;;7.50;;
261;SDS011;114;48.260;10.988;2023-04-21T13:57:06;7.73;;;7.10;;
261;SDS011;114;48.260;10.988;2023-04-21T13:59:32;9.57;;;8.73;;
261;SDS011;114;48.260;10.988;2023-04-21T14:01:58;9.07;;;8.07;;
261;SDS011;114;48.260;10.988;2023-04-21T14:04:24;8.77;;;8.07;;
261;SDS011;114;48.260;10.988;2023-04-21T14:06:50;9.32;;;7.63;;
261;SDS011;114;48.260;10.988;2023-04-21T14:09:16;10.30;;;7.95;;
261;SDS011;114;48.260;10.988;2023-04-21T14:11:42;10.38;;;6.80;;
261;SDS011;114;48.260;10.988;2023-04-21T14:14:08;14.60;;;7.10;;
261;SDS011;114;48.260;10.988;2023-04-21T14:16:33;8.65;;;7.28;;
261;SDS011;114;48.260;10.988;2023-04-21T14:18:59;7.45;;;6.85;;
261;SDS011;114;48.260;10.988;2023-04-21T14:21:25;8.97;;;6.90;;
261;SDS011;114;48.260;10.988;2023-04-21T14:23:51;10.95;;;6.80;;
261;SDS011;114;48.260;10.988;2023-04-21T14:26:17;8.30;;;7.60;;
261;SDS011;114;48.260;10.988;2023-04-21T14:28:43;6.73;;;6.20;;
261;SDS011;114;48.260;10.988;2023-04-21T14:31:08;7.33;;;6.40;;
261;SDS011;114;48.260;10.988;2023-04-21T14:33:34;6.47;;;5.97;;
261;SDS011;114;48.260;10.988;2023-04-21T14:36:00;6.40;;;5.80;;
261;SDS011;114;48.260;10.988;2023-04-21T14:38:26;6.10;;;5.60;;
261;SDS011;114;48.260;10.988;2023-04-21T14:40:53;4.90;;;4.57;;
261;SDS011;114;48.260;10.988;2023-04-21T14:43:19;9.68;;;4.90;;
261;SDS011;114;48.260;10.988;2023-04-21T14:45:46;5.00;;;4.70;;
261;SDS011;114;48.260;10.988;2023-04-21T14:48:12;4.18;;;3.97;;
261;SDS011;114;48.260;10.988;2023-04-21T14:50:40;4.50;;;4.20;;
261;SDS011;114;48.260;10.988;2023-04-21T14:53:06;6.15;;;5.70;;
261;SDS011;114;48.260;10.988;2023-04-21T14:55:32;5.97;;;4.70;;
261;SDS011;114;48.260;10.988;2023-04-21T14:57:58;5.72;;;4.45;;
261;SDS011;114;48.260;10.988;2023-04-21T15:00:24;4.70;;;4.40;;
261;SDS011;114;48.260;10.988;2023-04-21T15:02:50;4.30;;;3.90;;
261;SDS011;114;48.260;10.988;2023-04-21T15:05:17;3.95;;;3.42;;
261;SDS011;114;48.260;10.988;2023-04-21T15:07:43;8.45;;;3.83;;
261;SDS011;114;48.260;10.988;2023-04-21T15:10:09;3.78;;;3.55;;
261;SDS011;114;48.260;10.988;2023-04-21T15:12:35;3.83;;;3.10;;
261;SDS011;114;48.260;10.988;2023-04-21T15:15:02;4.25;;;3.90;;
261;SDS011;114;48.260;10.988;2023-04-21T15:17:29;3.38;;;3.22;;
261;SDS011;114;48.260;10.988;2023-04-21T15:19:54;4.93;;;3.47;;
261;SDS011;114;48.260;10.988;2023-04-21T15:22:20;3.30;;;3.15;;
261;SDS011;114;48.260;10.988;2023-04-21T15:24:46;3.95;;;2.92;;
261;SDS011;114;48.260;10.988;2023-04-21T15:27:12;2.53;;;2.40;;